sensor_id;sensor_type;location;lat;lon;timestamp;temperature;humidity
17619;DHT22;8928;51.678;6.074;2022-07-29T00:02:30;17.80;99.90
17619;DHT22;8928;51.678;6.074;2022-07-29T00:05:17;17.80;99.90
17619;DHT22;8928;51.678;6.074;2022-07-29T00:08:04;17.80;99.90
17619;DHT22;8928;51.678;6.074;2022-07-29T00:10:51;17.80;99.90
17619;DHT22;8928;51.678;6.074;2022-07-29T00:13:39;17.80;99.90
17619;DHT22;8928;51.678;6.074;2022-07-29T00:16:27;17.80;99.90
17619;DHT22;8928;51.678;6.074;2022-07-29T00:19:14;17.80;99.90
17619;DHT22;8928;51.678;6.074;2022-07-29T00:22:01;17.80;99.90
17619;DHT22;8928;51.678;6.074;2022-07-29T00:24:48;17.80;99.90
17619;DHT22;8928;51.678;6.074;2022-07-29T00:27:36;17.80;99.90
17619;DHT22;8928;51.678;6.074;2022-07-29T00:30:23;17.80;99.90
17619;DHT22;8928;51.678;6.074;2022-07-29T00:33:12;17.80;99.90
17619;DHT22;8928;51.678;6.074;2022-07-29T00:35:59;17.80;99.90
17619;DHT22;8928;51.678;6.074;2022-07-29T00:38:45;17.80;99.90
17619;DHT22;8928;51.678;6.074;2022-07-29T00:41:32;17.80;99.90
17619;DHT22;8928;51.678;6.074;2022-07-29T00:44:19;17.80;99.90
17619;DHT22;8928;51.678;6.074;2022-07-29T00:47:07;17.80;99.90
17619;DHT22;8928;51.678;6.074;2022-07-29T00:49:55;17.80;99.90
17619;DHT22;8928;51.678;6.074;2022-07-29T00:52:42;17.80;99.90
17619;DHT22;8928;51.678;6.074;2022-07-29T00:55:30;17.80;99.90
17619;DHT22;8928;51.678;6.074;2022-07-29T00:58:17;17.80;99.90
17619;DHT22;8928;51.678;6.074;2022-07-29T01:01:04;17.80;99.90
17619;DHT22;8928;51.678;6.074;2022-07-29T01:03:51;17.80;99.90
17619;DHT22;8928;51.678;6.074;2022-07-29T01:06:40;17.70;99.90
17619;DHT22;8928;51.678;6.074;2022-07-29T01:09:27;17.70;99.90
17619;DHT22;8928;51.678;6.074;2022-07-29T01:12:17;17.60;99.90
17619;DHT22;8928;51.678;6.074;2022-07-29T01:15:07;17.60;99.90
17619;DHT22;8928;51.678;6.074;2022-07-29T01:18:01;17.50;99.90
17619;DHT22;8928;51.678;6.074;2022-07-29T01:21:15;17.40;99.90
17619;DHT22;8928;51.678;6.074;2022-07-29T01:24:32;17.40;99.90
17619;DHT22;8928;51.678;6.074;2022-07-29T01:27:38;17.20;99.90
17619;DHT22;8928;51.678;6.074;2022-07-29T01:30:29;17.00;99.90
17619;DHT22;8928;51.678;6.074;2022-07-29T01:33:17;16.40;99.90
17619;DHT22;8928;51.678;6.074;2022-07-29T01:36:23;15.90;99.90
17619;DHT22;8928;51.678;6.074;2022-07-29T01:39:18;15.50;99.90
17619;DHT22;8928;51.678;6.074;2022-07-29T01:42:12;15.20;99.90
17619;DHT22;8928;51.678;6.074;2022-07-29T01:45:05;14.90;99.90
17619;DHT22;8928;51.678;6.074;2022-07-29T01:47:59;14.60;99.90
17619;DHT22;8928;51.678;6.074;2022-07-29T01:50:49;14.50;99.90
17619;DHT22;8928;51.678;6.074;2022-07-29T01:53:42;14.40;99.90
17619;DHT22;8928;51.678;6.074;2022-07-29T01:56:31;14.40;99.90
17619;DHT22;8928;51.678;6.074;2022-07-29T01:59:20;14.40;99.90
17619;DHT22;8928;51.678;6.074;2022-07-29T02:02:10;14.20;99.90
17619;DHT22;8928;51.678;6.074;2022-07-29T02:05:00;14.20;99.90
17619;DHT22;8928;51.678;6.074;2022-07-29T02:07:50;14.10;99.90
17619;DHT22;8928;51.678;6.074;2022-07-29T02:10:40;14.10;99.90
17619;DHT22;8928;51.678;6.074;2022-07-29T02:13:30;14.10;99.90
17619;DHT22;8928;51.678;6.074;2022-07-29T02:16:21;14.10;99.90
17619;DHT22;8928;51.678;6.074;2022-07-29T02:19:09;14.30;99.90
17619;DHT22;8928;51.678;6.074;2022-07-29T02:21:59;14.30;99.90
17619;DHT22;8928;51.678;6.074;2022-07-29T02:24:48;14.20;99.90
17619;DHT22;8928;51.678;6.074;2022-07-29T02:27:37;14.30;99.90
17619;DHT22;8928;51.678;6.074;2022-07-29T02:30:27;14.40;99.90
17619;DHT22;8928;51.678;6.074;2022-07-29T02:33:16;14.40;99.90
17619;DHT22;8928;51.678;6.074;2022-07-29T02:36:05;14.40;99.90
17619;DHT22;8928;51.678;6.074;2022-07-29T02:38:55;14.40;99.90
17619;DHT22;8928;51.678;6.074;2022-07-29T02:41:45;14.40;99.90
17619;DHT22;8928;51.678;6.074;2022-07-29T02:44:34;14.50;99.90
17619;DHT22;8928;51.678;6.074;2022-07-29T02:47:24;14.50;99.90
17619;DHT22;8928;51.678;6.074;2022-07-29T02:50:17;14.60;99.90
17619;DHT22;8928;51.678;6.074;2022-07-29T02:53:11;14.60;99.90
17619;DHT22;8928;51.678;6.074;2022-07-29T02:56:04;14.50;99.90
17619;DHT22;8928;51.678;6.074;2022-07-29T02:58:55;14.40;99.90
17619;DHT22;8928;51.678;6.074;2022-07-29T03:01:43;14.30;99.90
17619;DHT22;8928;51.678;6.074;2022-07-29T03:04:32;14.30;99.90
17619;DHT22;8928;51.678;6.074;2022-07-29T03:07:21;14.20;99.90
17619;DHT22;8928;51.678;6.074;2022-07-29T03:10:09;14.10;99.90
17619;DHT22;8928;51.678;6.074;2022-07-29T03:12:58;14.10;99.90
17619;DHT22;8928;51.678;6.074;2022-07-29T03:15:45;14.10;99.90
17619;DHT22;8928;51.678;6.074;2022-07-29T03:21:10;14.10;99.90
17619;DHT22;8928;51.678;6.074;2022-07-29T03:23:57;14.00;99.90
17619;DHT22;8928;51.678;6.074;2022-07-29T03:26:45;13.90;99.90
17619;DHT22;8928;51.678;6.074;2022-07-29T03:29:33;13.90;99.90
17619;DHT22;8928;51.678;6.074;2022-07-29T03:32:20;13.90;99.90
17619;DHT22;8928;51.678;6.074;2022-07-29T03:35:08;13.90;99.90
17619;DHT22;8928;51.678;6.074;2022-07-29T03:37:55;13.90;99.90
17619;DHT22;8928;51.678;6.074;2022-07-29T03:40:46;13.90;99.90
17619;DHT22;8928;51.678;6.074;2022-07-29T03:43:37;13.80;99.90
17619;DHT22;8928;51.678;6.074;2022-07-29T03:46:28;13.80;99.90
17619;DHT22;8928;51.678;6.074;2022-07-29T03:49:16;13.80;99.90
17619;DHT22;8928;51.678;6.074;2022-07-29T03:52:05;13.80;99.90
17619;DHT22;8928;51.678;6.074;2022-07-29T03:54:52;13.80;99.90
17619;DHT22;8928;51.678;6.074;2022-07-29T03:57:40;13.80;99.90
17619;DHT22;8928;51.678;6.074;2022-07-29T04:00:28;13.80;99.90
17619;DHT22;8928;51.678;6.074;2022-07-29T04:03:18;13.80;99.90
17619;DHT22;8928;51.678;6.074;2022-07-29T04:06:06;13.80;99.90
17619;DHT22;8928;51.678;6.074;2022-07-29T04:08:53;13.80;99.90
17619;DHT22;8928;51.678;6.074;2022-07-29T04:11:41;13.90;99.90
17619;DHT22;8928;51.678;6.074;2022-07-29T04:14:28;13.90;99.90
17619;DHT22;8928;51.678;6.074;2022-07-29T04:17:16;13.90;99.90
17619;DHT22;8928;51.678;6.074;2022-07-29T04:20:05;13.90;99.90
17619;DHT22;8928;51.678;6.074;2022-07-29T04:22:52;13.90;99.90
17619;DHT22;8928;51.678;6.074;2022-07-29T04:25:40;13.90;99.90
17619;DHT22;8928;51.678;6.074;2022-07-29T04:28:28;13.90;99.90
17619;DHT22;8928;51.678;6.074;2022-07-29T04:31:15;14.00;99.90
17619;DHT22;8928;51.678;6.074;2022-07-29T04:34:02;14.00;99.90
17619;DHT22;8928;51.678;6.074;2022-07-29T04:36:51;14.10;99.90
17619;DHT22;8928;51.678;6.074;2022-07-29T04:39:38;14.10;99.90
17619;DHT22;8928;51.678;6.074;2022-07-29T04:42:25;14.10;99.90
17619;DHT22;8928;51.678;6.074;2022-07-29T04:45:12;14.10;99.90
17619;DHT22;8928;51.678;6.074;2022-07-29T04:47:59;14.10;99.90
17619;DHT22;8928;51.678;6.074;2022-07-29T04:50:46;14.20;99.90
17619;DHT22;8928;51.678;6.074;2022-07-29T04:53:34;14.20;99.90
17619;DHT22;8928;51.678;6.074;2022-07-29T04:56:22;14.20;99.90
17619;DHT22;8928;51.678;6.074;2022-07-29T04:59:09;14.20;99.90
17619;DHT22;8928;51.678;6.074;2022-07-29T05:01:56;14.30;99.90
17619;DHT22;8928;51.678;6.074;2022-07-29T05:04:43;14.30;99.90
17619;DHT22;8928;51.678;6.074;2022-07-29T05:07:30;14.30;99.90
17619;DHT22;8928;51.678;6.074;2022-07-29T05:10:18;14.30;99.90
17619;DHT22;8928;51.678;6.074;2022-07-29T05:13:06;14.20;99.90
17619;DHT22;8928;51.678;6.074;2022-07-29T05:15:53;14.30;99.90
17619;DHT22;8928;51.678;6.074;2022-07-29T05:18:40;14.30;99.90
17619;DHT22;8928;51.678;6.074;2022-07-29T05:21:27;14.40;99.90
17619;DHT22;8928;51.678;6.074;2022-07-29T05:24:14;14.40;99.90
17619;DHT22;8928;51.678;6.074;2022-07-29T05:27:03;14.50;99.90
17619;DHT22;8928;51.678;6.074;2022-07-29T05:29:50;14.40;99.90
17619;DHT22;8928;51.678;6.074;2022-07-29T05:32:37;14.30;99.90
17619;DHT22;8928;51.678;6.074;2022-07-29T05:35:25;14.30;99.90
17619;DHT22;8928;51.678;6.074;2022-07-29T05:38:12;14.30;99.90
17619;DHT22;8928;51.678;6.074;2022-07-29T05:40:59;14.30;99.90
17619;DHT22;8928;51.678;6.074;2022-07-29T05:43:47;14.40;99.90
17619;DHT22;8928;51.678;6.074;2022-07-29T05:46:34;14.50;99.90
17619;DHT22;8928;51.678;6.074;2022-07-29T05:49:21;14.60;99.90
17619;DHT22;8928;51.678;6.074;2022-07-29T05:52:09;14.70;99.90
17619;DHT22;8928;51.678;6.074;2022-07-29T05:54:56;14.70;99.90
17619;DHT22;8928;51.678;6.074;2022-07-29T05:57:43;14.70;99.90
17619;DHT22;8928;51.678;6.074;2022-07-29T06:00:32;14.70;99.90
17619;DHT22;8928;51.678;6.074;2022-07-29T06:03:20;14.80;99.90
17619;DHT22;8928;51.678;6.074;2022-07-29T06:06:07;14.90;99.90
17619;DHT22;8928;51.678;6.074;2022-07-29T06:08:54;14.90;99.90
17619;DHT22;8928;51.678;6.074;2022-07-29T06:11:41;14.90;99.90
17619;DHT22;8928;51.678;6.074;2022-07-29T06:14:28;15.00;99.90
17619;DHT22;8928;51.678;6.074;2022-07-29T06:17:17;15.10;99.90
17619;DHT22;8928;51.678;6.074;2022-07-29T06:20:05;15.10;99.90
17619;DHT22;8928;51.678;6.074;2022-07-29T06:22:52;15.10;99.90
17619;DHT22;8928;51.678;6.074;2022-07-29T06:25:39;15.00;99.90
17619;DHT22;8928;51.678;6.074;2022-07-29T06:28:27;15.00;99.90
17619;DHT22;8928;51.678;6.074;2022-07-29T06:31:14;15.00;99.90
17619;DHT22;8928;51.678;6.074;2022-07-29T06:34:03;15.00;99.90
17619;DHT22;8928;51.678;6.074;2022-07-29T06:36:50;14.90;99.90
17619;DHT22;8928;51.678;6.074;2022-07-29T06:39:38;14.90;99.90
17619;DHT22;8928;51.678;6.074;2022-07-29T06:42:25;14.90;99.90
17619;DHT22;8928;51.678;6.074;2022-07-29T06:45:12;14.90;99.90
17619;DHT22;8928;51.678;6.074;2022-07-29T06:47:59;14.90;99.90
17619;DHT22;8928;51.678;6.074;2022-07-29T06:50:48;14.90;99.90
17619;DHT22;8928;51.678;6.074;2022-07-29T06:53:35;14.90;99.90
17619;DHT22;8928;51.678;6.074;2022-07-29T06:56:22;14.90;99.90
17619;DHT22;8928;51.678;6.074;2022-07-29T06:59:11;14.90;99.90
17619;DHT22;8928;51.678;6.074;2022-07-29T07:01:58;14.90;99.90
17619;DHT22;8928;51.678;6.074;2022-07-29T07:04:45;14.90;99.90
17619;DHT22;8928;51.678;6.074;2022-07-29T07:07:33;15.00;99.90
17619;DHT22;8928;51.678;6.074;2022-07-29T07:10:20;15.00;99.90
17619;DHT22;8928;51.678;6.074;2022-07-29T07:13:08;14.90;99.90
17619;DHT22;8928;51.678;6.074;2022-07-29T07:15:55;14.90;99.90
17619;DHT22;8928;51.678;6.074;2022-07-29T07:18:42;14.90;99.90
17619;DHT22;8928;51.678;6.074;2022-07-29T07:21:30;14.90;99.90
17619;DHT22;8928;51.678;6.074;2022-07-29T07:24:20;14.90;99.90
17619;DHT22;8928;51.678;6.074;2022-07-29T07:27:07;15.00;99.90
17619;DHT22;8928;51.678;6.074;2022-07-29T07:29:54;14.90;99.90
17619;DHT22;8928;51.678;6.074;2022-07-29T07:32:41;14.90;99.90
17619;DHT22;8928;51.678;6.074;2022-07-29T07:35:29;14.90;99.90
17619;DHT22;8928;51.678;6.074;2022-07-29T07:38:16;14.90;99.90
17619;DHT22;8928;51.678;6.074;2022-07-29T07:41:04;15.00;99.90
17619;DHT22;8928;51.678;6.074;2022-07-29T07:43:52;15.00;99.90
17619;DHT22;8928;51.678;6.074;2022-07-29T07:46:39;15.10;99.90
17619;DHT22;8928;51.678;6.074;2022-07-29T07:49:26;15.10;99.90
17619;DHT22;8928;51.678;6.074;2022-07-29T07:52:13;15.20;99.90
17619;DHT22;8928;51.678;6.074;2022-07-29T07:55:00;15.30;99.90
17619;DHT22;8928;51.678;6.074;2022-07-29T07:57:49;15.30;99.90
17619;DHT22;8928;51.678;6.074;2022-07-29T08:00:36;15.20;99.90
17619;DHT22;8928;51.678;6.074;2022-07-29T08:03:23;15.30;99.90
17619;DHT22;8928;51.678;6.074;2022-07-29T08:06:10;15.30;99.90
17619;DHT22;8928;51.678;6.074;2022-07-29T08:08:57;15.30;99.90
17619;DHT22;8928;51.678;6.074;2022-07-29T08:11:44;15.40;99.90
17619;DHT22;8928;51.678;6.074;2022-07-29T08:14:33;15.50;99.90
17619;DHT22;8928;51.678;6.074;2022-07-29T08:17:20;15.50;99.90
17619;DHT22;8928;51.678;6.074;2022-07-29T08:20:07;15.60;99.90
17619;DHT22;8928;51.678;6.074;2022-07-29T08:22:55;15.70;99.90
17619;DHT22;8928;51.678;6.074;2022-07-29T08:25:42;15.80;99.90
17619;DHT22;8928;51.678;6.074;2022-07-29T08:28:29;15.90;99.90
17619;DHT22;8928;51.678;6.074;2022-07-29T08:31:17;16.20;99.90
17619;DHT22;8928;51.678;6.074;2022-07-29T08:34:05;16.40;99.90
17619;DHT22;8928;51.678;6.074;2022-07-29T08:36:52;16.60;99.90
17619;DHT22;8928;51.678;6.074;2022-07-29T08:39:39;16.80;99.90
17619;DHT22;8928;51.678;6.074;2022-07-29T08:42:26;17.00;99.90
17619;DHT22;8928;51.678;6.074;2022-07-29T08:45:14;17.30;99.90
17619;DHT22;8928;51.678;6.074;2022-07-29T08:48:03;17.60;99.90
17619;DHT22;8928;51.678;6.074;2022-07-29T08:50:54;17.80;99.90
17619;DHT22;8928;51.678;6.074;2022-07-29T08:53:43;17.90;99.90
17619;DHT22;8928;51.678;6.074;2022-07-29T08:56:31;17.80;99.90
17619;DHT22;8928;51.678;6.074;2022-07-29T08:59:20;17.80;99.90
17619;DHT22;8928;51.678;6.074;2022-07-29T09:02:14;17.70;99.90
17619;DHT22;8928;51.678;6.074;2022-07-29T09:05:04;17.70;99.90
17619;DHT22;8928;51.678;6.074;2022-07-29T09:07:52;17.70;99.90
17619;DHT22;8928;51.678;6.074;2022-07-29T09:10:39;17.80;99.90
17619;DHT22;8928;51.678;6.074;2022-07-29T09:13:26;17.80;99.90
17619;DHT22;8928;51.678;6.074;2022-07-29T09:16:14;17.80;99.90
17619;DHT22;8928;51.678;6.074;2022-07-29T09:21:41;17.50;99.90
17619;DHT22;8928;51.678;6.074;2022-07-29T09:24:47;17.40;99.90
17619;DHT22;8928;51.678;6.074;2022-07-29T09:27:34;17.30;99.90
17619;DHT22;8928;51.678;6.074;2022-07-29T09:30:21;17.20;99.90
17619;DHT22;8928;51.678;6.074;2022-07-29T09:33:08;17.30;99.90
17619;DHT22;8928;51.678;6.074;2022-07-29T09:36:00;17.40;99.90
17619;DHT22;8928;51.678;6.074;2022-07-29T09:38:58;17.60;99.90
17619;DHT22;8928;51.678;6.074;2022-07-29T09:41:48;17.90;99.90
17619;DHT22;8928;51.678;6.074;2022-07-29T09:44:43;18.10;99.90
17619;DHT22;8928;51.678;6.074;2022-07-29T09:47:41;18.40;99.90
17619;DHT22;8928;51.678;6.074;2022-07-29T09:50:37;18.80;99.90
17619;DHT22;8928;51.678;6.074;2022-07-29T09:53:32;19.00;99.90
17619;DHT22;8928;51.678;6.074;2022-07-29T09:56:37;19.10;99.90
17619;DHT22;8928;51.678;6.074;2022-07-29T09:59:25;19.30;99.90
17619;DHT22;8928;51.678;6.074;2022-07-29T10:02:12;19.40;99.90
17619;DHT22;8928;51.678;6.074;2022-07-29T10:05:00;19.60;99.90
17619;DHT22;8928;51.678;6.074;2022-07-29T10:07:50;20.10;99.90
17619;DHT22;8928;51.678;6.074;2022-07-29T10:10:39;20.60;99.90
17619;DHT22;8928;51.678;6.074;2022-07-29T10:13:27;21.30;99.90
17619;DHT22;8928;51.678;6.074;2022-07-29T10:16:15;21.80;99.90
17619;DHT22;8928;51.678;6.074;2022-07-29T10:19:03;22.20;99.90
17619;DHT22;8928;51.678;6.074;2022-07-29T10:21:50;22.50;99.90
17619;DHT22;8928;51.678;6.074;2022-07-29T10:24:38;22.70;99.90
17619;DHT22;8928;51.678;6.074;2022-07-29T10:27:25;23.00;99.90
17619;DHT22;8928;51.678;6.074;2022-07-29T10:30:15;23.10;99.90
17619;DHT22;8928;51.678;6.074;2022-07-29T10:33:11;23.30;99.90
17619;DHT22;8928;51.678;6.074;2022-07-29T10:36:12;23.40;99.90
17619;DHT22;8928;51.678;6.074;2022-07-29T10:39:06;23.70;99.90
17619;DHT22;8928;51.678;6.074;2022-07-29T10:42:06;23.90;99.90
17619;DHT22;8928;51.678;6.074;2022-07-29T10:44:56;24.00;99.90
17619;DHT22;8928;51.678;6.074;2022-07-29T10:47:45;24.10;99.90
17619;DHT22;8928;51.678;6.074;2022-07-29T10:50:54;24.30;99.90
17619;DHT22;8928;51.678;6.074;2022-07-29T10:53:48;24.70;99.90
17619;DHT22;8928;51.678;6.074;2022-07-29T10:56:36;25.20;99.90
17619;DHT22;8928;51.678;6.074;2022-07-29T10:59:23;25.30;99.90
17619;DHT22;8928;51.678;6.074;2022-07-29T11:02:46;25.60;99.90
17619;DHT22;8928;51.678;6.074;2022-07-29T11:05:55;25.80;99.90
17619;DHT22;8928;51.678;6.074;2022-07-29T11:08:42;25.90;99.90
17619;DHT22;8928;51.678;6.074;2022-07-29T11:11:32;26.00;99.90
17619;DHT22;8928;51.678;6.074;2022-07-29T11:14:54;26.00;99.90
17619;DHT22;8928;51.678;6.074;2022-07-29T11:18:05;26.40;99.90
17619;DHT22;8928;51.678;6.074;2022-07-29T11:20:52;26.80;99.90
17619;DHT22;8928;51.678;6.074;2022-07-29T11:23:39;26.80;99.90
17619;DHT22;8928;51.678;6.074;2022-07-29T11:26:29;27.20;99.90
17619;DHT22;8928;51.678;6.074;2022-07-29T11:29:19;27.20;99.90
17619;DHT22;8928;51.678;6.074;2022-07-29T11:32:09;27.20;99.90
17619;DHT22;8928;51.678;6.074;2022-07-29T11:35:15;27.10;99.90
17619;DHT22;8928;51.678;6.074;2022-07-29T11:38:24;27.40;99.90
17619;DHT22;8928;51.678;6.074;2022-07-29T11:41:23;27.80;99.90
17619;DHT22;8928;51.678;6.074;2022-07-29T11:44:10;28.10;99.90
17619;DHT22;8928;51.678;6.074;2022-07-29T11:46:58;27.70;99.90
17619;DHT22;8928;51.678;6.074;2022-07-29T11:49:45;27.70;99.90
17619;DHT22;8928;51.678;6.074;2022-07-29T11:52:35;27.80;99.90
17619;DHT22;8928;51.678;6.074;2022-07-29T11:55:28;28.00;99.90
17619;DHT22;8928;51.678;6.074;2022-07-29T11:58:21;28.40;99.90
17619;DHT22;8928;51.678;6.074;2022-07-29T12:01:13;28.70;99.90
17619;DHT22;8928;51.678;6.074;2022-07-29T12:04:04;28.90;99.90
17619;DHT22;8928;51.678;6.074;2022-07-29T12:06:53;29.00;99.90
17619;DHT22;8928;51.678;6.074;2022-07-29T12:09:49;29.30;99.90
17619;DHT22;8928;51.678;6.074;2022-07-29T12:12:36;29.20;99.90
17619;DHT22;8928;51.678;6.074;2022-07-29T12:15:24;28.50;99.90
17619;DHT22;8928;51.678;6.074;2022-07-29T12:18:17;28.20;99.90
17619;DHT22;8928;51.678;6.074;2022-07-29T12:21:04;28.30;99.90
17619;DHT22;8928;51.678;6.074;2022-07-29T12:23:55;28.70;99.90
17619;DHT22;8928;51.678;6.074;2022-07-29T12:26:51;29.30;99.90
17619;DHT22;8928;51.678;6.074;2022-07-29T12:29:38;29.50;99.90
17619;DHT22;8928;51.678;6.074;2022-07-29T12:32:31;29.70;99.90
17619;DHT22;8928;51.678;6.074;2022-07-29T12:35:19;30.00;99.90
17619;DHT22;8928;51.678;6.074;2022-07-29T12:38:09;29.50;99.90
17619;DHT22;8928;51.678;6.074;2022-07-29T12:40:56;29.70;99.90
17619;DHT22;8928;51.678;6.074;2022-07-29T12:43:53;29.80;99.90
17619;DHT22;8928;51.678;6.074;2022-07-29T12:46:41;30.00;99.90
17619;DHT22;8928;51.678;6.074;2022-07-29T12:49:28;29.80;99.90
17619;DHT22;8928;51.678;6.074;2022-07-29T12:52:26;29.80;99.90
17619;DHT22;8928;51.678;6.074;2022-07-29T12:55:14;30.10;99.90
17619;DHT22;8928;51.678;6.074;2022-07-29T12:58:01;30.80;99.90
17619;DHT22;8928;51.678;6.074;2022-07-29T13:01:02;31.10;99.90
17619;DHT22;8928;51.678;6.074;2022-07-29T13:03:51;30.70;99.90
17619;DHT22;8928;51.678;6.074;2022-07-29T13:06:39;30.70;99.90
17619;DHT22;8928;51.678;6.074;2022-07-29T13:09:37;30.20;99.90
17619;DHT22;8928;51.678;6.074;2022-07-29T13:12:24;29.90;99.90
17619;DHT22;8928;51.678;6.074;2022-07-29T13:15:15;29.70;99.90
17619;DHT22;8928;51.678;6.074;2022-07-29T13:18:06;30.00;99.90
17619;DHT22;8928;51.678;6.074;2022-07-29T13:21:13;30.40;99.90
17619;DHT22;8928;51.678;6.074;2022-07-29T13:24:01;31.00;99.90
17619;DHT22;8928;51.678;6.074;2022-07-29T13:26:48;31.40;99.90
17619;DHT22;8928;51.678;6.074;2022-07-29T13:29:35;31.60;99.90
17619;DHT22;8928;51.678;6.074;2022-07-29T13:32:26;31.40;99.90
17619;DHT22;8928;51.678;6.074;2022-07-29T13:35:15;32.20;99.90
17619;DHT22;8928;51.678;6.074;2022-07-29T13:38:02;33.10;99.90
17619;DHT22;8928;51.678;6.074;2022-07-29T13:40:49;33.20;99.90
17619;DHT22;8928;51.678;6.074;2022-07-29T13:43:37;33.60;99.90
17619;DHT22;8928;51.678;6.074;2022-07-29T13:46:24;34.40;99.90
17619;DHT22;8928;51.678;6.074;2022-07-29T13:49:11;34.70;99.90
17619;DHT22;8928;51.678;6.074;2022-07-29T13:52:00;35.10;99.90
17619;DHT22;8928;51.678;6.074;2022-07-29T13:54:47;35.20;99.90
17619;DHT22;8928;51.678;6.074;2022-07-29T13:57:34;35.30;99.90
17619;DHT22;8928;51.678;6.074;2022-07-29T14:00:22;34.50;99.90
17619;DHT22;8928;51.678;6.074;2022-07-29T14:03:09;34.70;99.90
17619;DHT22;8928;51.678;6.074;2022-07-29T14:05:56;34.40;99.90
17619;DHT22;8928;51.678;6.074;2022-07-29T14:08:47;34.80;99.90
17619;DHT22;8928;51.678;6.074;2022-07-29T14:11:34;35.40;99.90
17619;DHT22;8928;51.678;6.074;2022-07-29T14:14:21;35.30;99.90
17619;DHT22;8928;51.678;6.074;2022-07-29T14:17:08;35.80;99.90
17619;DHT22;8928;51.678;6.074;2022-07-29T14:19:55;35.80;99.90
17619;DHT22;8928;51.678;6.074;2022-07-29T14:22:42;34.50;99.90
17619;DHT22;8928;51.678;6.074;2022-07-29T14:25:30;33.60;99.90
17619;DHT22;8928;51.678;6.074;2022-07-29T14:28:17;34.20;99.90
17619;DHT22;8928;51.678;6.074;2022-07-29T14:31:05;34.70;99.90
17619;DHT22;8928;51.678;6.074;2022-07-29T14:33:52;34.80;99.80
17619;DHT22;8928;51.678;6.074;2022-07-29T14:36:39;34.70;99.90
17619;DHT22;8928;51.678;6.074;2022-07-29T14:39:26;34.90;98.80
17619;DHT22;8928;51.678;6.074;2022-07-29T14:42:14;34.50;99.40
17619;DHT22;8928;51.678;6.074;2022-07-29T14:45:01;33.80;98.40
17619;DHT22;8928;51.678;6.074;2022-07-29T14:47:49;33.70;98.80
17619;DHT22;8928;51.678;6.074;2022-07-29T14:50:36;34.00;98.50
17619;DHT22;8928;51.678;6.074;2022-07-29T14:53:23;34.70;99.10
17619;DHT22;8928;51.678;6.074;2022-07-29T14:56:10;34.90;98.00
17619;DHT22;8928;51.678;6.074;2022-07-29T14:58:59;35.10;97.80
17619;DHT22;8928;51.678;6.074;2022-07-29T15:01:46;34.50;97.40
17619;DHT22;8928;51.678;6.074;2022-07-29T15:04:33;33.30;98.60
17619;DHT22;8928;51.678;6.074;2022-07-29T15:07:20;34.10;98.50
17619;DHT22;8928;51.678;6.074;2022-07-29T15:10:07;34.80;98.10
17619;DHT22;8928;51.678;6.074;2022-07-29T15:12:55;35.10;96.20
17619;DHT22;8928;51.678;6.074;2022-07-29T15:15:43;35.50;98.00
17619;DHT22;8928;51.678;6.074;2022-07-29T15:18:31;35.70;95.00
17619;DHT22;8928;51.678;6.074;2022-07-29T15:21:18;35.90;94.50
17619;DHT22;8928;51.678;6.074;2022-07-29T15:24:05;35.70;94.00
17619;DHT22;8928;51.678;6.074;2022-07-29T15:26:52;35.80;95.30
17619;DHT22;8928;51.678;6.074;2022-07-29T15:29:40;34.70;92.90
17619;DHT22;8928;51.678;6.074;2022-07-29T15:32:28;34.40;93.10
17619;DHT22;8928;51.678;6.074;2022-07-29T15:35:16;34.30;93.10
17619;DHT22;8928;51.678;6.074;2022-07-29T15:38:03;34.30;93.40
17619;DHT22;8928;51.678;6.074;2022-07-29T15:40:50;33.60;93.30
17619;DHT22;8928;51.678;6.074;2022-07-29T15:43:37;33.10;93.50
17619;DHT22;8928;51.678;6.074;2022-07-29T15:46:24;33.70;94.00
17619;DHT22;8928;51.678;6.074;2022-07-29T15:49:30;34.60;93.60
17619;DHT22;8928;51.678;6.074;2022-07-29T15:52:19;35.60;92.70
17619;DHT22;8928;51.678;6.074;2022-07-29T15:55:07;36.40;92.90
17619;DHT22;8928;51.678;6.074;2022-07-29T15:57:54;36.90;92.50
17619;DHT22;8928;51.678;6.074;2022-07-29T16:00:41;37.50;90.90
17619;DHT22;8928;51.678;6.074;2022-07-29T16:03:28;36.40;90.00
17619;DHT22;8928;51.678;6.074;2022-07-29T16:06:17;34.20;90.20
17619;DHT22;8928;51.678;6.074;2022-07-29T16:09:04;32.50;90.80
17619;DHT22;8928;51.678;6.074;2022-07-29T16:11:51;31.10;92.50
17619;DHT22;8928;51.678;6.074;2022-07-29T16:14:38;30.30;94.10
17619;DHT22;8928;51.678;6.074;2022-07-29T16:17:25;30.30;94.60
17619;DHT22;8928;51.678;6.074;2022-07-29T16:20:13;31.70;95.80
17619;DHT22;8928;51.678;6.074;2022-07-29T16:23:01;33.80;93.40
17619;DHT22;8928;51.678;6.074;2022-07-29T16:25:48;35.10;92.40
17619;DHT22;8928;51.678;6.074;2022-07-29T16:28:36;35.50;91.80
17619;DHT22;8928;51.678;6.074;2022-07-29T16:31:23;36.00;90.90
17619;DHT22;8928;51.678;6.074;2022-07-29T16:34:10;35.60;91.70
17619;DHT22;8928;51.678;6.074;2022-07-29T16:36:57;35.50;90.60
17619;DHT22;8928;51.678;6.074;2022-07-29T16:39:45;35.90;90.00
17619;DHT22;8928;51.678;6.074;2022-07-29T16:42:32;35.70;90.30
17619;DHT22;8928;51.678;6.074;2022-07-29T16:45:20;34.70;89.30
17619;DHT22;8928;51.678;6.074;2022-07-29T16:48:07;35.00;90.70
17619;DHT22;8928;51.678;6.074;2022-07-29T16:50:54;35.40;90.90
17619;DHT22;8928;51.678;6.074;2022-07-29T16:53:41;34.90;90.50
17619;DHT22;8928;51.678;6.074;2022-07-29T16:56:31;34.80;90.50
17619;DHT22;8928;51.678;6.074;2022-07-29T16:59:18;35.10;90.70
17619;DHT22;8928;51.678;6.074;2022-07-29T17:02:05;35.50;90.30
17619;DHT22;8928;51.678;6.074;2022-07-29T17:04:52;35.10;90.30
17619;DHT22;8928;51.678;6.074;2022-07-29T17:07:39;35.30;90.20
17619;DHT22;8928;51.678;6.074;2022-07-29T17:10:26;35.00;90.30
17619;DHT22;8928;51.678;6.074;2022-07-29T17:13:16;34.80;90.60
17619;DHT22;8928;51.678;6.074;2022-07-29T17:16:03;33.70;91.20
17619;DHT22;8928;51.678;6.074;2022-07-29T17:18:52;32.10;92.20
17619;DHT22;8928;51.678;6.074;2022-07-29T17:21:39;30.50;93.30
17619;DHT22;8928;51.678;6.074;2022-07-29T17:24:26;29.20;94.00
17619;DHT22;8928;51.678;6.074;2022-07-29T17:27:13;28.30;94.90
17619;DHT22;8928;51.678;6.074;2022-07-29T17:30:03;27.60;96.10
17619;DHT22;8928;51.678;6.074;2022-07-29T17:32:51;27.10;98.00
17619;DHT22;8928;51.678;6.074;2022-07-29T17:35:38;26.80;99.60
17619;DHT22;8928;51.678;6.074;2022-07-29T17:38:43;26.50;99.90
17619;DHT22;8928;51.678;6.074;2022-07-29T17:41:31;26.30;99.90
17619;DHT22;8928;51.678;6.074;2022-07-29T17:44:18;26.00;99.90
17619;DHT22;8928;51.678;6.074;2022-07-29T17:47:07;25.70;99.90
17619;DHT22;8928;51.678;6.074;2022-07-29T17:49:54;25.40;99.90
17619;DHT22;8928;51.678;6.074;2022-07-29T17:52:41;25.20;99.90
17619;DHT22;8928;51.678;6.074;2022-07-29T17:55:28;25.00;99.90
17619;DHT22;8928;51.678;6.074;2022-07-29T17:58:15;24.80;99.90
17619;DHT22;8928;51.678;6.074;2022-07-29T18:01:03;24.80;99.90
17619;DHT22;8928;51.678;6.074;2022-07-29T18:03:51;25.40;99.90
17619;DHT22;8928;51.678;6.074;2022-07-29T18:06:38;25.70;99.90
17619;DHT22;8928;51.678;6.074;2022-07-29T18:09:25;25.90;99.90
17619;DHT22;8928;51.678;6.074;2022-07-29T18:12:12;26.70;99.90